Time;durP1;ratioP1;P1;durP2;ratioP2;P2;SDS_P1;SDS_P2;PMS_P1;PMS_P2;Temp;Humidity;BMP_temperature;BMP_pressure;BME280_temperature;BME280_humidity;BME280_pressure;Samples;Min_cycle;Max_cycle;Signal;HPM_P1;HPM_P2
2023/08/21 00:00:50;;;;;;;8.57;2.50;;;;;;;;;;4989945;28;99953;-70
2023/08/21 00:03:17;;;;;;;5.45;3.60;;;;;;;;;;4993787;28;98161;-71
2023/08/21 00:05:43;;;;;;;7.47;2.30;;;;;;;;;;4989220;28;99834;-71
2023/08/21 00:08:10;;;;;;;9.20;2.40;;;;;;;;;;4990618;28;98259;-71
2023/08/21 00:10:37;;;;;;;11.65;3.15;;;;;;;;;;4990296;28;98567;-70
2023/08/21 00:13:04;;;;;;;6.13;2.83;;;;;;;;;;4998789;28;99993;-71
2023/08/21 00:15:32;;;;;;;3.97;2.33;;;;;;;;;;5011196;28;98458;-71
2023/08/21 00:18:00;;;;;;;7.45;2.67;;;;;;;;;;5010277;28;98364;-70
2023/08/21 00:20:26;;;;;;;6.25;2.50;;;;;;;;;;5008486;28;99192;-71
2023/08/21 00:22:53;;;;;;;8.88;2.90;;;;;;;;;;5002025;28;98247;-71
2023/08/21 00:25:20;;;;;;;6.47;2.30;;;;;;;;;;4992824;28;98477;-72
2023/08/21 00:27:47;;;;;;;7.03;2.40;;;;;;;;;;4989326;28;98437;-71
2023/08/21 00:30:14;;;;;;;2.97;2.28;;;;;;;;;;4990036;28;98372;-70
2023/08/21 00:32:41;;;;;;;11.05;2.85;;;;;;;;;;4989178;28;100495;-71
2023/08/21 00:35:08;;;;;;;6.97;2.13;;;;;;;;;;4987848;28;98214;-71
2023/08/21 00:37:34;;;;;;;4.53;2.10;;;;;;;;;;4989550;28;99696;-70
2023/08/21 00:40:01;;;;;;;3.75;2.17;;;;;;;;;;4989241;28;99109;-70
2023/08/21 00:42:28;;;;;;;3.60;2.13;;;;;;;;;;4989669;28;98177;-70
2023/08/21 00:44:54;;;;;;;5.43;2.45;;;;;;;;;;4988390;28;100461;-70
2023/08/21 00:47:20;;;;;;;2.30;2.10;;;;;;;;;;4992434;28;98831;-71
2023/08/21 00:49:47;;;;;;;4.75;2.50;;;;;;;;;;4989845;28;98504;-70
2023/08/21 00:52:14;;;;;;;6.88;2.28;;;;;;;;;;4989200;28;100210;-70
2023/08/21 00:54:41;;;;;;;4.57;1.90;;;;;;;;;;4989297;28;99253;-70
2023/08/21 00:57:08;;;;;;;3.58;2.15;;;;;;;;;;4989750;28;99502;-71
2023/08/21 00:59:35;;;;;;;3.15;1.95;;;;;;;;;;4988356;28;98741;-72
2023/08/21 01:02:01;;;;;;;6.80;2.72;;;;;;;;;;4988631;28;98651;-71
2023/08/21 01:04:28;;;;;;;7.18;2.08;;;;;;;;;;5000578;28;98715;-71
2023/08/21 01:06:56;;;;;;;5.10;2.28;;;;;;;;;;5008318;28;101061;-71
2023/08/21 01:09:29;;;;;;;3.45;2.28;;;;;;;;;;5010553;28;98279;-70
2023/08/21 01:12:02;;;;;;;5.65;2.40;;;;;;;;;;4968973;28;100892;-70
2023/08/21 01:14:36;;;;;;;7.65;2.20;;;;;;;;;;4967964;28;98275;-70
2023/08/21 01:17:05;;;;;;;7.63;2.70;;;;;;;;;;4969588;28;98565;-70
2023/08/21 01:19:35;;;;;;;5.95;2.97;;;;;;;;;;4969007;28;98719;-70
2023/08/21 01:22:02;;;;;;;5.18;2.05;;;;;;;;;;4985926;28;98062;-70
2023/08/21 01:24:28;;;;;;;8.95;2.28;;;;;;;;;;4986650;28;101441;-70
2023/08/21 01:26:55;;;;;;;2.97;2.67;;;;;;;;;;4990461;28;100009;-71
2023/08/21 01:29:22;;;;;;;7.47;3.05;;;;;;;;;;4990316;28;98209;-71
2023/08/21 01:31:52;;;;;;;13.40;3.17;;;;;;;;;;4994363;28;99646;-71
2023/08/21 01:34:21;;;;;;;5.22;2.53;;;;;;;;;;4988964;28;97962;-70
2023/08/21 01:36:48;;;;;;;4.53;2.55;;;;;;;;;;4988148;28;98583;-70
2023/08/21 01:39:14;;;;;;;9.40;2.83;;;;;;;;;;5005993;28;98727;-71
2023/08/21 01:41:41;;;;;;;5.20;2.30;;;;;;;;;;5009351;28;98879;-70
2023/08/21 01:44:08;;;;;;;6.70;2.47;;;;;;;;;;5008365;28;98484;-70
2023/08/21 01:46:34;;;;;;;2.83;2.30;;;;;;;;;;5008676;28;98790;-71
2023/08/21 01:49:01;;;;;;;6.57;2.45;;;;;;;;;;5006977;28;99171;-70
2023/08/21 01:51:27;;;;;;;3.75;2.25;;;;;;;;;;5007925;28;99003;-70
2023/08/21 01:53:54;;;;;;;4.70;2.47;;;;;;;;;;4995287;28;98718;-70
2023/08/21 01:56:20;;;;;;;3.75;2.30;;;;;;;;;;4989668;28;98538;-70
2023/08/21 01:58:47;;;;;;;7.20;2.45;;;;;;;;;;4988035;28;99085;-71
2023/08/21 02:01:14;;;;;;;4.75;2.55;;;;;;;;;;4987091;28;98334;-71
2023/08/21 02:03:42;;;;;;;6.05;2.40;;;;;;;;;;4988901;28;98605;-71
2023/08/21 02:06:09;;;;;;;6.43;2.78;;;;;;;;;;4988140;28;98898;-71
2023/08/21 02:08:35;;;;;;;5.50;2.75;;;;;;;;;;4988602;28;98234;-70
2023/08/21 02:11:02;;;;;;;10.13;3.17;;;;;;;;;;4988406;28;98326;-70
2023/08/21 02:13:28;;;;;;;5.53;3.63;;;;;;;;;;5009963;28;99788;-70
2023/08/21 02:15:56;;;;;;;9.27;3.03;;;;;;;;;;5007455;28;100700;-70
2023/08/21 02:18:22;;;;;;;4.18;2.47;;;;;;;;;;5007510;28;98990;-69
2023/08/21 02:20:49;;;;;;;6.57;2.40;;;;;;;;;;5009522;28;98148;-70
2023/08/21 02:23:16;;;;;;;5.35;2.40;;;;;;;;;;4996535;28;98497;-71
2023/08/21 02:25:42;;;;;;;6.65;2.28;;;;;;;;;;4989563;28;99093;-70
2023/08/21 02:28:09;;;;;;;3.38;2.35;;;;;;;;;;4992132;28;98182;-70
2023/08/21 02:30:39;;;;;;;4.57;2.97;;;;;;;;;;5011194;28;98898;-71
2023/08/21 02:33:06;;;;;;;5.13;2.17;;;;;;;;;;5010503;28;98753;-71
2023/08/21 02:35:32;;;;;;;3.53;2.13;;;;;;;;;;5014905;28;98206;-70
2023/08/21 02:37:59;;;;;;;4.63;2.40;;;;;;;;;;5010752;28;99921;-71
2023/08/21 02:40:25;;;;;;;6.95;3.33;;;;;;;;;;5010348;28;98286;-70
2023/08/21 02:42:52;;;;;;;6.15;2.80;;;;;;;;;;5010086;28;98586;-71
2023/08/21 02:45:19;;;;;;;4.90;2.55;;;;;;;;;;5010082;28;99870;-70
2023/08/21 02:47:45;;;;;;;4.47;3.03;;;;;;;;;;5009668;28;98383;-71
2023/08/21 02:50:12;;;;;;;4.70;3.25;;;;;;;;;;4984229;28;99775;-71
2023/08/21 02:52:38;;;;;;;8.65;3.13;;;;;;;;;;4981019;28;98966;-71
2023/08/21 02:55:06;;;;;;;5.32;3.35;;;;;;;;;;4989029;28;98385;-71
2023/08/21 02:57:33;;;;;;;5.90;3.63;;;;;;;;;;4994199;28;98434;-71
2023/08/21 02:59:59;;;;;;;9.95;3.60;;;;;;;;;;4991468;28;98243;-70
2023/08/21 03:02:26;;;;;;;8.02;3.30;;;;;;;;;;4992080;28;99405;-71
2023/08/21 03:04:53;;;;;;;6.10;2.92;;;;;;;;;;5010442;28;99101;-70
2023/08/21 03:07:19;;;;;;;4.35;3.33;;;;;;;;;;5010618;28;98303;-70
2023/08/21 03:09:47;;;;;;;4.57;2.97;;;;;;;;;;5011180;28;98230;-70
2023/08/21 03:12:14;;;;;;;14.77;3.95;;;;;;;;;;5010077;28;98611;-71
2023/08/21 03:14:41;;;;;;;8.38;3.17;;;;;;;;;;5010642;28;98440;-70
2023/08/21 03:17:08;;;;;;;6.45;2.97;;;;;;;;;;5009791;28;98440;-71
2023/08/21 03:19:34;;;;;;;5.80;2.83;;;;;;;;;;5011874;28;100812;-70
2023/08/21 03:22:01;;;;;;;6.20;2.53;;;;;;;;;;4989497;28;98603;-70
2023/08/21 03:24:28;;;;;;;5.13;3.15;;;;;;;;;;4989130;28;100886;-70
2023/08/21 03:26:54;;;;;;;7.95;3.40;;;;;;;;;;4989124;28;98308;-70
2023/08/21 03:29:21;;;;;;;5.63;2.92;;;;;;;;;;4989929;28;98416;-71
2023/08/21 03:31:52;;;;;;;8.52;2.95;;;;;;;;;;4990396;28;98907;-70
2023/08/21 03:34:18;;;;;;;6.80;3.27;;;;;;;;;;4988844;28;98273;-70
2023/08/21 03:36:46;;;;;;;5.65;2.65;;;;;;;;;;4994258;28;100447;-71
2023/08/21 03:39:13;;;;;;;8.18;2.40;;;;;;;;;;5009027;28;101094;-70
2023/08/21 03:41:43;;;;;;;3.67;2.30;;;;;;;;;;5012819;28;98231;-69
2023/08/21 03:44:10;;;;;;;7.63;2.50;;;;;;;;;;5008827;28;101319;-71
2023/08/21 03:46:37;;;;;;;5.70;2.63;;;;;;;;;;5009437;28;98322;-70
2023/08/21 03:49:03;;;;;;;3.40;2.45;;;;;;;;;;5009248;28;99485;-71
2023/08/21 03:51:31;;;;;;;5.25;2.47;;;;;;;;;;4993717;28;101239;-70
2023/08/21 03:53:58;;;;;;;7.13;2.70;;;;;;;;;;4991058;28;98205;-70
2023/08/21 03:56:25;;;;;;;6.95;2.97;;;;;;;;;;4988650;28;100679;-70
2023/08/21 03:58:53;;;;;;;6.63;3.50;;;;;;;;;;4988086;28;100014;-72
2023/08/21 04:01:19;;;;;;;4.43;2.78;;;;;;;;;;4989001;28;98573;-70
2023/08/21 04:03:46;;;;;;;5.05;2.72;;;;;;;;;;4993188;28;98620;-70
2023/08/21 04:06:12;;;;;;;10.02;3.75;;;;;;;;;;4988793;28;98049;-71
2023/08/21 04:08:39;;;;;;;6.07;3.10;;;;;;;;;;4989192;28;100486;-70
2023/08/21 04:11:06;;;;;;;5.35;2.88;;;;;;;;;;4989609;28;100418;-70
2023/08/21 04:13:33;;;;;;;8.68;3.10;;;;;;;;;;4989906;28;98137;-70
2023/08/21 04:15:59;;;;;;;5.72;2.85;;;;;;;;;;4989455;28;98418;-71
2023/08/21 04:18:26;;;;;;;4.55;2.92;;;;;;;;;;4989106;28;98731;-71
2023/08/21 04:21:07;;;;;;;4.20;2.70;;;;;;;;;;4989976;28;98216;-70
2023/08/21 04:23:33;;;;;;;5.55;2.58;;;;;;;;;;4991220;28;99397;-71
2023/08/21 04:26:01;;;;;;;7.97;2.47;;;;;;;;;;4989436;28;98372;-70
2023/08/21 04:28:29;;;;;;;8.85;3.10;;;;;;;;;;4988850;28;99379;-71
2023/08/21 04:30:57;;;;;;;4.22;2.70;;;;;;;;;;4988793;28;100842;-69
2023/08/21 04:33:25;;;;;;;6.95;2.97;;;;;;;;;;4987901;28;98231;-70
2023/08/21 04:35:52;;;;;;;6.00;3.00;;;;;;;;;;4989968;28;98306;-71
2023/08/21 04:38:18;;;;;;;8.75;3.15;;;;;;;;;;4989002;28;98930;-70
2023/08/21 04:40:45;;;;;;;6.93;2.83;;;;;;;;;;4986163;28;98359;-70
2023/08/21 04:43:12;;;;;;;6.95;2.40;;;;;;;;;;4987491;28;100584;-70
2023/08/21 04:45:59;;;;;;;5.50;2.05;;;;;;;;;;4992202;28;99889;-70
2023/08/21 04:48:28;;;;;;;3.03;2.42;;;;;;;;;;4989326;28;98540;-71
2023/08/21 04:50:55;;;;;;;5.75;2.28;;;;;;;;;;4988364;28;100890;-70
2023/08/21 04:53:22;;;;;;;7.22;2.35;;;;;;;;;;4987077;28;98549;-69
2023/08/21 04:55:49;;;;;;;2.92;2.38;;;;;;;;;;4988261;28;101128;-71
2023/08/21 04:58:17;;;;;;;4.68;2.85;;;;;;;;;;4989172;28;99063;-71
2023/08/21 05:00:46;;;;;;;10.30;3.22;;;;;;;;;;4987249;28;98223;-72
2023/08/21 05:03:13;;;;;;;3.17;2.78;;;;;;;;;;4989648;28;98140;-71
2023/08/21 05:05:51;;;;;;;13.38;2.60;;;;;;;;;;4987175;28;101298;-71
2023/08/21 05:08:18;;;;;;;5.40;2.53;;;;;;;;;;4990444;28;98270;-71
2023/08/21 05:10:44;;;;;;;4.68;2.95;;;;;;;;;;4987432;28;102160;-72
2023/08/21 05:13:11;;;;;;;4.68;2.78;;;;;;;;;;4989900;28;98094;-70
2023/08/21 05:15:37;;;;;;;8.75;2.70;;;;;;;;;;4990541;28;101339;-70
2023/08/21 05:18:04;;;;;;;4.53;2.80;;;;;;;;;;4987724;28;101679;-70
2023/08/21 05:20:31;;;;;;;7.65;2.85;;;;;;;;;;5007176;28;99149;-72
2023/08/21 05:22:57;;;;;;;11.55;2.80;;;;;;;;;;5007544;28;98671;-69
2023/08/21 05:25:24;;;;;;;3.72;2.40;;;;;;;;;;5008405;28;99450;-70
2023/08/21 05:27:50;;;;;;;4.85;3.05;;;;;;;;;;5007927;28;98305;-71
2023/08/21 05:30:17;;;;;;;6.93;2.67;;;;;;;;;;5010429;28;98471;-71
2023/08/21 05:32:43;;;;;;;7.00;2.97;;;;;;;;;;5004225;28;98616;-70
2023/08/21 05:35:10;;;;;;;11.63;3.75;;;;;;;;;;5002777;28;100375;-70
2023/08/21 05:37:40;;;;;;;5.38;3.30;;;;;;;;;;4977956;28;99521;-70
2023/08/21 05:40:07;;;;;;;8.85;3.28;;;;;;;;;;4977756;28;99694;-70
2023/08/21 05:42:34;;;;;;;8.43;2.83;;;;;;;;;;4977011;28;99949;-71
2023/08/21 05:45:01;;;;;;;7.57;3.08;;;;;;;;;;4978744;28;100217;-70
2023/08/21 05:47:29;;;;;;;6.65;3.55;;;;;;;;;;4981019;28;98478;-70
2023/08/21 05:49:56;;;;;;;13.07;3.22;;;;;;;;;;4988151;28;98596;-70
2023/08/21 05:52:22;;;;;;;8.07;2.90;;;;;;;;;;4990336;28;103079;-71
2023/08/21 05:54:49;;;;;;;2.78;2.45;;;;;;;;;;4988397;28;98360;-70
2023/08/21 05:57:15;;;;;;;5.28;3.47;;;;;;;;;;4989737;28;101213;-71
2023/08/21 05:59:45;;;;;;;9.07;3.30;;;;;;;;;;4990120;28;98333;-70
2023/08/21 06:02:15;;;;;;;4.97;3.05;;;;;;;;;;4989632;28;99474;-71
2023/08/21 06:04:42;;;;;;;6.30;3.15;;;;;;;;;;4985823;28;101358;-70
2023/08/21 06:07:09;;;;;;;6.97;3.85;;;;;;;;;;4987630;28;100069;-69
2023/08/21 06:09:36;;;;;;;5.47;3.67;;;;;;;;;;4991940;28;100005;-70
2023/08/21 06:12:06;;;;;;;8.35;2.92;;;;;;;;;;4977527;28;98712;-73
2023/08/21 06:14:35;;;;;;;4.13;2.08;;;;;;;;;;4973701;28;98061;-72
2023/08/21 06:17:02;;;;;;;12.38;3.78;;;;;;;;;;4971825;28;98927;-71
2023/08/21 06:19:29;;;;;;;7.50;2.85;;;;;;;;;;4967786;28;99101;-72
2023/08/21 06:21:56;;;;;;;3.15;2.85;;;;;;;;;;4991191;28;98214;-70
2023/08/21 06:24:23;;;;;;;6.05;2.95;;;;;;;;;;4990480;28;98921;-71
2023/08/21 06:26:54;;;;;;;6.28;3.40;;;;;;;;;;4985253;28;100109;-71
2023/08/21 06:29:21;;;;;;;9.38;3.65;;;;;;;;;;4986255;28;100438;-72
2023/08/21 06:31:48;;;;;;;10.50;3.03;;;;;;;;;;4991200;28;98686;-71
2023/08/21 06:34:14;;;;;;;8.85;3.22;;;;;;;;;;4993441;28;98303;-71
2023/08/21 06:36:41;;;;;;;6.88;2.80;;;;;;;;;;4991761;28;98936;-71
2023/08/21 06:39:08;;;;;;;5.70;3.28;;;;;;;;;;4989683;28;98293;-71
2023/08/21 06:41:34;;;;;;;3.45;2.47;;;;;;;;;;4990039;28;101324;-71
2023/08/21 06:44:01;;;;;;;5.65;2.65;;;;;;;;;;4989236;28;99975;-72
2023/08/21 06:46:28;;;;;;;6.03;2.75;;;;;;;;;;4989142;28;98226;-71
2023/08/21 06:48:55;;;;;;;7.00;2.53;;;;;;;;;;4990157;28;101475;-72
2023/08/21 06:51:22;;;;;;;6.82;3.05;;;;;;;;;;4990888;28;100070;-71
2023/08/21 06:53:48;;;;;;;8.10;2.53;;;;;;;;;;4974396;28;98207;-71
2023/08/21 06:56:15;;;;;;;5.05;1.83;;;;;;;;;;4974149;28;99758;-72
2023/08/21 06:58:41;;;;;;;8.32;2.20;;;;;;;;;;4971446;28;98317;-71
2023/08/21 07:01:08;;;;;;;7.43;2.10;;;;;;;;;;4970958;28;99570;-72
2023/08/21 07:03:34;;;;;;;5.65;1.85;;;;;;;;;;4981503;28;99629;-72
2023/08/21 07:06:01;;;;;;;6.38;2.20;;;;;;;;;;4971081;28;98816;-71
2023/08/21 07:08:30;;;;;;;4.97;2.25;;;;;;;;;;4972103;28;98733;-72
2023/08/21 07:10:57;;;;;;;5.95;1.98;;;;;;;;;;4981614;28;99753;-72
2023/08/21 07:13:23;;;;;;;10.15;1.88;;;;;;;;;;4984855;28;98308;-72
2023/08/21 07:15:52;;;;;;;7.82;1.73;;;;;;;;;;4971811;28;98728;-72
2023/08/21 07:18:18;;;;;;;4.45;2.05;;;;;;;;;;4985772;28;99863;-71
2023/08/21 07:20:45;;;;;;;7.45;2.10;;;;;;;;;;4976744;28;99499;-71
2023/08/21 07:23:11;;;;;;;7.60;2.00;;;;;;;;;;4975889;28;99953;-72
2023/08/21 07:25:37;;;;;;;5.00;1.42;;;;;;;;;;4971552;28;98332;-71
2023/08/21 07:28:04;;;;;;;4.35;1.95;;;;;;;;;;4970209;28;99702;-71
2023/08/21 07:30:31;;;;;;;5.28;1.73;;;;;;;;;;4970469;28;100130;-71
2023/08/21 07:33:00;;;;;;;5.00;1.77;;;;;;;;;;4988626;28;98243;-72
2023/08/21 07:35:26;;;;;;;5.50;1.73;;;;;;;;;;4989608;28;98437;-72
2023/08/21 07:37:53;;;;;;;3.35;1.70;;;;;;;;;;4990491;28;99989;-71
2023/08/21 07:40:20;;;;;;;4.85;1.50;;;;;;;;;;4980049;28;98046;-72
2023/08/21 07:42:46;;;;;;;5.00;1.40;;;;;;;;;;4989620;28;99976;-72
2023/08/21 07:45:13;;;;;;;3.38;1.50;;;;;;;;;;4990408;28;98141;-72
2023/08/21 07:47:39;;;;;;;4.45;1.27;;;;;;;;;;4990624;28;99612;-72
2023/08/21 07:50:08;;;;;;;8.20;1.40;;;;;;;;;;4989626;28;99027;-72
2023/08/21 07:52:36;;;;;;;4.20;1.35;;;;;;;;;;4990553;28;98071;-72
2023/08/21 07:55:03;;;;;;;3.30;1.30;;;;;;;;;;4990596;28;99441;-72
2023/08/21 07:57:30;;;;;;;2.88;1.40;;;;;;;;;;4987898;28;99241;-71
2023/08/21 07:59:57;;;;;;;2.60;1.30;;;;;;;;;;4979076;28;98226;-72
2023/08/21 08:02:23;;;;;;;3.38;1.40;;;;;;;;;;4972939;28;100035;-72
2023/08/21 08:04:50;;;;;;;6.85;1.67;;;;;;;;;;4969543;28;98279;-73
2023/08/21 08:07:16;;;;;;;3.05;1.33;;;;;;;;;;4978816;28;98432;-73
2023/08/21 08:09:43;;;;;;;6.10;1.30;;;;;;;;;;4989858;28;100309;-72
2023/08/21 08:12:10;;;;;;;2.80;1.20;;;;;;;;;;4989585;28;98289;-71
2023/08/21 08:14:39;;;;;;;6.03;1.70;;;;;;;;;;4990299;28;99449;-72
2023/08/21 08:17:06;;;;;;;3.72;1.63;;;;;;;;;;4988060;28;100064;-71
2023/08/21 08:19:33;;;;;;;2.40;1.10;;;;;;;;;;4989802;28;98337;-72
2023/08/21 08:22:00;;;;;;;7.78;1.73;;;;;;;;;;4987942;28;97978;-72
2023/08/21 08:24:26;;;;;;;2.97;1.15;;;;;;;;;;4990120;28;98347;-72
2023/08/21 08:26:53;;;;;;;3.60;1.50;;;;;;;;;;4970139;28;99516;-71
2023/08/21 08:29:19;;;;;;;5.15;1.67;;;;;;;;;;4969533;28;99944;-70
2023/08/21 08:31:46;;;;;;;4.75;1.65;;;;;;;;;;4969167;28;98278;-71
2023/08/21 08:34:14;;;;;;;5.85;1.73;;;;;;;;;;4969673;28;98518;-71
2023/08/21 08:36:41;;;;;;;5.22;1.58;;;;;;;;;;4969711;28;98857;-70
2023/08/21 08:39:08;;;;;;;3.58;1.50;;;;;;;;;;4969830;28;98278;-71
2023/08/21 08:41:45;;;;;;;5.85;1.40;;;;;;;;;;4969676;28;99344;-72
2023/08/21 08:44:12;;;;;;;7.47;1.30;;;;;;;;;;4972130;28;99945;-71
2023/08/21 08:46:39;;;;;;;6.75;1.73;;;;;;;;;;4967787;28;99732;-71
2023/08/21 08:49:05;;;;;;;3.65;1.23;;;;;;;;;;4970098;28;100119;-73
2023/08/21 08:51:33;;;;;;;7.75;1.30;;;;;;;;;;4969605;28;98205;-72
2023/08/21 08:53:59;;;;;;;2.42;1.45;;;;;;;;;;4968813;28;99615;-73
2023/08/21 08:56:26;;;;;;;6.90;1.65;;;;;;;;;;4969058;28;99908;-72
2023/08/21 08:58:52;;;;;;;6.95;1.38;;;;;;;;;;4985587;28;98199;-72
2023/08/21 09:01:19;;;;;;;6.78;1.42;;;;;;;;;;4985437;28;98876;-72
2023/08/21 09:03:45;;;;;;;5.60;1.23;;;;;;;;;;4972946;28;99053;-72
2023/08/21 09:06:15;;;;;;;6.43;1.33;;;;;;;;;;4971611;28;98215;-74
2023/08/21 09:08:53;;;;;;;6.57;1.42;;;;;;;;;;4974463;28;99324;-72
2023/08/21 09:11:20;;;;;;;4.93;1.13;;;;;;;;;;4979837;28;98223;-72
2023/08/21 09:13:48;;;;;;;5.38;1.40;;;;;;;;;;4982123;28;99819;-72
2023/08/21 09:16:21;;;;;;;4.93;1.00;;;;;;;;;;4969157;28;100064;-72
2023/08/21 09:18:48;;;;;;;7.38;1.50;;;;;;;;;;4975033;28;99696;-72
2023/08/21 09:21:16;;;;;;;4.90;1.40;;;;;;;;;;4988169;28;99528;-72
2023/08/21 09:23:42;;;;;;;4.88;1.30;;;;;;;;;;4988669;28;100236;-71
2023/08/21 09:26:09;;;;;;;16.50;1.58;;;;;;;;;;4989224;28;98006;-72
2023/08/21 09:28:35;;;;;;;5.55;2.05;;;;;;;;;;4991800;28;98501;-71
2023/08/21 09:31:02;;;;;;;2.55;0.98;;;;;;;;;;4992852;28;98175;-72
2023/08/21 09:33:33;;;;;;;4.28;1.30;;;;;;;;;;4992541;28;98513;-71
2023/08/21 09:35:59;;;;;;;5.53;1.40;;;;;;;;;;4990797;28;100589;-71
2023/08/21 09:38:26;;;;;;;5.75;1.38;;;;;;;;;;4991933;28;98235;-71
2023/08/21 09:40:53;;;;;;;3.97;1.20;;;;;;;;;;4992513;28;99105;-71
2023/08/21 09:43:20;;;;;;;3.83;1.73;;;;;;;;;;4978674;28;99004;-71
2023/08/21 09:45:47;;;;;;;3.15;1.00;;;;;;;;;;4972422;28;98442;-71
2023/08/21 09:48:13;;;;;;;5.32;1.60;;;;;;;;;;4971908;28;99077;-71
2023/08/21 09:50:40;;;;;;;3.35;1.20;;;;;;;;;;4975475;28;99915;-71
2023/08/21 09:53:07;;;;;;;5.25;1.42;;;;;;;;;;4972769;28;99421;-70
2023/08/21 09:55:34;;;;;;;6.38;1.27;;;;;;;;;;4971279;28;100094;-71
2023/08/21 09:58:01;;;;;;;4.63;1.17;;;;;;;;;;4972541;28;98236;-71
2023/08/21 10:00:32;;;;;;;2.03;1.20;;;;;;;;;;4971518;28;98615;-71
2023/08/21 10:03:01;;;;;;;2.10;0.95;;;;;;;;;;4971461;28;99925;-71
2023/08/21 10:05:28;;;;;;;2.75;1.40;;;;;;;;;;4971758;28;98195;-71
2023/08/21 10:07:55;;;;;;;4.93;1.33;;;;;;;;;;4986391;28;98713;-71
2023/08/21 10:10:23;;;;;;;2.75;1.33;;;;;;;;;;4990260;28;100269;-71
2023/08/21 10:12:50;;;;;;;0.73;0.65;;;;;;;;;;4987172;28;99830;-71
2023/08/21 10:15:16;;;;;;;6.00;1.20;;;;;;;;;;4971715;28;100290;-71
2023/08/21 10:17:43;;;;;;;2.20;1.02;;;;;;;;;;4971474;28;98326;-70
2023/08/21 10:20:10;;;;;;;3.58;1.27;;;;;;;;;;4972146;28;99471;-71
2023/08/21 10:22:46;;;;;;;6.25;1.52;;;;;;;;;;4981814;28;99917;-72
2023/08/21 10:25:17;;;;;;;2.47;1.38;;;;;;;;;;4991698;28;98402;-71
2023/08/21 10:27:45;;;;;;;7.65;1.40;;;;;;;;;;4992622;28;99431;-71
2023/08/21 10:30:13;;;;;;;5.38;1.15;;;;;;;;;;4990931;28;100137;-71
2023/08/21 10:32:46;;;;;;;1.92;1.15;;;;;;;;;;4994753;28;98271;-72
2023/08/21 10:35:14;;;;;;;9.88;1.90;;;;;;;;;;4987078;28;98980;-72
2023/08/21 10:37:59;;;;;;;3.10;1.40;;;;;;;;;;4970886;28;98248;-72
2023/08/21 10:40:26;;;;;;;2.38;0.98;;;;;;;;;;4971971;28;98804;-71
2023/08/21 10:42:53;;;;;;;1.15;0.70;;;;;;;;;;4981789;28;99129;-72
2023/08/21 10:45:20;;;;;;;2.55;1.25;;;;;;;;;;4985490;28;98182;-72
2023/08/21 10:47:49;;;;;;;3.28;1.25;;;;;;;;;;4990297;28;99588;-71
2023/08/21 10:50:15;;;;;;;9.10;0.90;;;;;;;;;;4970405;28;99965;-71
2023/08/21 10:52:44;;;;;;;5.20;0.90;;;;;;;;;;4970656;28;98203;-71
2023/08/21 10:55:15;;;;;;;4.85;0.90;;;;;;;;;;4975378;28;99087;-72
2023/08/21 10:57:41;;;;;;;4.82;1.02;;;;;;;;;;4979327;28;98192;-70
2023/08/21 11:00:11;;;;;;;3.10;1.17;;;;;;;;;;4974531;28;98753;-71
2023/08/21 11:02:38;;;;;;;1.88;1.08;;;;;;;;;;4970927;28;98920;-71
2023/08/21 11:05:07;;;;;;;4.68;1.08;;;;;;;;;;4988178;28;98215;-71
2023/08/21 11:07:39;;;;;;;4.05;1.20;;;;;;;;;;4990488;28;98571;-71
2023/08/21 11:10:08;;;;;;;5.55;1.30;;;;;;;;;;4991409;28;98821;-71
2023/08/21 11:12:38;;;;;;;3.27;1.03;;;;;;;;;;4986615;28;98481;-71
2023/08/21 11:15:06;;;;;;;5.35;1.17;;;;;;;;;;4981360;28;99917;-71
2023/08/21 11:17:32;;;;;;;3.42;1.40;;;;;;;;;;4981540;28;99991;-71
2023/08/21 11:20:00;;;;;;;4.95;1.23;;;;;;;;;;4988088;28;99838;-70
2023/08/21 11:22:31;;;;;;;3.35;1.45;;;;;;;;;;4989913;28;99907;-71
2023/08/21 11:24:58;;;;;;;15.80;1.40;;;;;;;;;;4990616;28;98283;-70
2023/08/21 11:27:24;;;;;;;3.28;1.08;;;;;;;;;;4989460;28;98845;-72
2023/08/21 11:29:51;;;;;;;3.88;1.63;;;;;;;;;;4990680;28;99186;-74
2023/08/21 11:32:19;;;;;;;1.63;0.80;;;;;;;;;;4970415;28;98219;-72
2023/08/21 11:34:50;;;;;;;2.33;1.15;;;;;;;;;;4970174;28;99478;-72
2023/08/21 11:37:17;;;;;;;3.22;0.98;;;;;;;;;;4970132;28;99879;-71
2023/08/21 11:39:51;;;;;;;2.60;0.98;;;;;;;;;;4973896;28;98200;-72
2023/08/21 11:42:19;;;;;;;7.25;1.38;;;;;;;;;;4969578;28;99264;-72
2023/08/21 11:44:47;;;;;;;3.60;1.45;;;;;;;;;;4970716;28;98419;-72
2023/08/21 11:47:14;;;;;;;3.17;1.00;;;;;;;;;;4970205;28;99416;-73
2023/08/21 11:49:43;;;;;;;3.47;0.90;;;;;;;;;;4969857;28;99953;-71
2023/08/21 11:52:11;;;;;;;1.58;1.02;;;;;;;;;;4969961;28;98329;-74
2023/08/21 11:54:40;;;;;;;6.30;1.00;;;;;;;;;;4970246;28;99163;-72
2023/08/21 11:57:13;;;;;;;3.70;1.10;;;;;;;;;;4973999;28;99939;-73
2023/08/21 11:59:40;;;;;;;3.72;0.82;;;;;;;;;;4990395;28;97947;-72
2023/08/21 12:02:10;;;;;;;4.20;1.40;;;;;;;;;;4986385;28;98516;-73
2023/08/21 12:04:36;;;;;;;4.70;0.90;;;;;;;;;;4972597;28;98062;-72
2023/08/21 12:07:03;;;;;;;3.55;0.90;;;;;;;;;;4977083;28;99394;-74
2023/08/21 12:09:34;;;;;;;1.25;0.85;;;;;;;;;;4989045;28;100238;-73
2023/08/21 12:12:00;;;;;;;3.55;1.17;;;;;;;;;;4985468;28;98252;-72
2023/08/21 12:14:28;;;;;;;4.28;1.08;;;;;;;;;;4970461;28;98951;-72
2023/08/21 12:16:54;;;;;;;1.17;0.85;;;;;;;;;;4969861;28;99075;-72
2023/08/21 12:19:24;;;;;;;4.68;1.10;;;;;;;;;;4970661;28;98364;-73
2023/08/21 12:21:51;;;;;;;2.40;0.80;;;;;;;;;;4972789;28;98520;-71
2023/08/21 12:24:18;;;;;;;5.05;1.20;;;;;;;;;;4992275;28;99057;-71
2023/08/21 12:26:44;;;;;;;5.40;1.20;;;;;;;;;;4989959;28;98673;-71
2023/08/21 12:29:16;;;;;;;;;;;;;;;;;;4988999;28;99989;-72
2023/08/21 12:31:42;;;;;;;1.30;0.68;;;;;;;;;;4987925;28;125557;-71
2023/08/21 12:34:09;;;;;;;2.45;1.00;;;;;;;;;;4989473;28;98505;-71
2023/08/21 12:36:39;;;;;;;0.82;0.80;;;;;;;;;;4987413;28;98883;-72
2023/08/21 12:39:06;;;;;;;1.00;0.82;;;;;;;;;;4988993;28;98428;-71
2023/08/21 12:41:32;;;;;;;1.95;0.73;;;;;;;;;;4989271;28;98758;-71
2023/08/21 12:43:59;;;;;;;3.13;0.90;;;;;;;;;;4992228;28;99149;-71
2023/08/21 12:46:27;;;;;;;3.53;1.30;;;;;;;;;;4989444;28;99923;-72
2023/08/21 12:48:53;;;;;;;3.55;1.15;;;;;;;;;;4989645;28;100417;-74
2023/08/21 12:51:20;;;;;;;1.67;0.93;;;;;;;;;;4988347;28;98217;-71
2023/08/21 12:53:46;;;;;;;3.85;1.15;;;;;;;;;;4988906;28;98890;-71
2023/08/21 12:56:13;;;;;;;2.30;1.08;;;;;;;;;;4986566;28;100197;-71
2023/08/21 12:58:39;;;;;;;4.03;1.30;;;;;;;;;;4988740;28;98558;-71
2023/08/21 13:01:06;;;;;;;2.92;1.05;;;;;;;;;;4990049;28;98659;-71
2023/08/21 13:03:33;;;;;;;1.50;0.70;;;;;;;;;;4989210;28;99977;-72
2023/08/21 13:06:00;;;;;;;2.80;1.10;;;;;;;;;;4972228;28;98284;-71
2023/08/21 13:08:27;;;;;;;5.25;0.60;;;;;;;;;;4968999;28;100246;-71
2023/08/21 13:10:53;;;;;;;3.50;1.00;;;;;;;;;;4969566;28;98204;-71
2023/08/21 13:13:20;;;;;;;4.03;1.73;;;;;;;;;;4967442;28;99783;-71
2023/08/21 13:15:46;;;;;;;3.47;0.90;;;;;;;;;;4988882;28;100156;-71
2023/08/21 13:18:14;;;;;;;3.42;0.80;;;;;;;;;;4988309;28;98276;-72
2023/08/21 13:20:44;;;;;;;3.78;1.20;;;;;;;;;;4988461;28;99313;-71
2023/08/21 13:23:10;;;;;;;2.42;0.95;;;;;;;;;;4988862;28;100268;-71
2023/08/21 13:25:37;;;;;;;3.65;0.80;;;;;;;;;;4989193;28;98185;-71
2023/08/21 13:28:03;;;;;;;3.40;0.90;;;;;;;;;;4991689;28;99430;-70
2023/08/21 13:30:31;;;;;;;2.10;0.95;;;;;;;;;;4980394;28;98010;-70
2023/08/21 13:32:58;;;;;;;1.98;0.95;;;;;;;;;;4969414;28;99022;-70
2023/08/21 13:35:25;;;;;;;1.05;0.80;;;;;;;;;;4966248;28;99130;-70
2023/08/21 13:37:51;;;;;;;2.53;0.80;;;;;;;;;;4973121;28;98487;-71
2023/08/21 13:40:18;;;;;;;5.30;1.27;;;;;;;;;;4975001;28;99872;-70
2023/08/21 13:42:45;;;;;;;1.52;0.88;;;;;;;;;;4973380;28;100155;-71
2023/08/21 13:45:14;;;;;;;3.03;1.65;;;;;;;;;;4974314;28;98268;-71
2023/08/21 13:47:41;;;;;;;7.65;1.27;;;;;;;;;;4969994;28;99538;-71
2023/08/21 13:50:09;;;;;;;4.20;1.08;;;;;;;;;;4985968;28;98734;-71
2023/08/21 13:52:36;;;;;;;0.80;0.80;;;;;;;;;;4979686;28;99324;-70
2023/08/21 13:55:04;;;;;;;2.60;0.93;;;;;;;;;;4972890;28;99272;-71
2023/08/21 13:57:32;;;;;;;3.53;1.20;;;;;;;;;;4999598;28;98307;-72
2023/08/21 13:59:59;;;;;;;5.20;0.95;;;;;;;;;;4988906;28;99438;-71
2023/08/21 14:02:26;;;;;;;8.20;1.30;;;;;;;;;;4972992;28;98909;-71
2023/08/21 14:04:52;;;;;;;5.00;1.42;;;;;;;;;;4974678;28;99424;-70
2023/08/21 14:07:19;;;;;;;1.08;0.77;;;;;;;;;;4977094;28;98400;-71
2023/08/21 14:09:45;;;;;;;3.78;1.17;;;;;;;;;;4976583;28;99561;-71
2023/08/21 14:12:12;;;;;;;1.88;1.10;;;;;;;;;;4983992;28;98184;-71
2023/08/21 14:14:38;;;;;;;0.85;0.80;;;;;;;;;;4996644;28;100504;-71
2023/08/21 14:17:04;;;;;;;3.72;0.93;;;;;;;;;;4989480;28;99107;-70
2023/08/21 14:19:33;;;;;;;1.40;1.10;;;;;;;;;;4977231;28;98489;-70
2023/08/21 14:22:00;;;;;;;2.33;1.30;;;;;;;;;;4972176;28;99978;-71
2023/08/21 14:24:27;;;;;;;6.65;1.00;;;;;;;;;;5006116;28;99240;-71
2023/08/21 14:26:55;;;;;;;2.05;0.70;;;;;;;;;;4975792;28;98502;-70
2023/08/21 14:29:24;;;;;;;1.73;0.98;;;;;;;;;;4968711;28;100314;-71
2023/08/21 14:31:53;;;;;;;1.63;0.90;;;;;;;;;;4979588;28;98759;-70
2023/08/21 14:34:23;;;;;;;2.30;0.80;;;;;;;;;;4980853;28;98797;-71
2023/08/21 14:36:49;;;;;;;4.78;1.00;;;;;;;;;;4975063;28;99412;-71
2023/08/21 14:39:16;;;;;;;2.65;0.90;;;;;;;;;;4977662;28;99292;-70
2023/08/21 14:41:42;;;;;;;5.20;1.08;;;;;;;;;;4977811;28;99988;-70